createdAt,value
2023-02-02T00:00:19.752Z,2.960000
2023-02-02T00:05:31.758Z,3.050000
2023-02-02T00:10:19.906Z,3.100000
2023-02-02T00:15:19.660Z,3.036364
2023-02-02T00:20:26.251Z,2.970000
2023-02-02T00:25:19.764Z,2.900000
2023-02-02T00:30:22.093Z,2.900000
2023-02-02T00:35:19.775Z,2.907692
2023-02-02T00:40:21.270Z,3.058333
2023-02-02T00:45:20.187Z,3.363636
2023-02-02T00:50:21.127Z,3.610000
2023-02-02T00:55:20.251Z,3.672727
2023-02-02T01:00:20.168Z,3.600000
2023-02-02T01:05:20.167Z,3.600000
2023-02-02T01:10:21.512Z,3.533333
2023-02-02T01:15:20.153Z,3.458333
2023-02-02T01:20:20.148Z,3.400000
2023-02-02T01:25:20.236Z,3.400000
2023-02-02T01:30:22.296Z,3.444444
2023-02-02T01:35:20.084Z,3.500000
2023-02-02T01:40:28.614Z,3.590000
2023-02-02T01:45:20.739Z,3.500000
2023-02-02T01:50:22.781Z,3.409091
2023-02-02T01:55:20.519Z,3.261538
2023-02-02T02:00:29.005Z,3.170000
2023-02-02T02:05:19.940Z,3.008333
2023-02-02T02:10:23.231Z,2.900000
2023-02-02T02:15:20.668Z,2.900000
2023-02-02T02:20:20.708Z,2.900000
2023-02-02T02:25:20.802Z,2.900000
2023-02-02T02:30:20.733Z,2.900000
2023-02-02T02:35:20.638Z,2.900000
2023-02-02T02:40:21.080Z,2.900000
2023-02-02T02:45:21.206Z,2.958333
2023-02-02T02:50:21.089Z,3.000000
2023-02-02T02:55:21.098Z,3.000000
2023-02-02T03:00:21.117Z,2.918182
2023-02-02T03:05:22.052Z,2.900000
2023-02-02T03:10:20.979Z,2.900000
2023-02-02T03:15:21.470Z,2.900000
2023-02-02T03:20:21.091Z,2.900000
2023-02-02T03:25:22.909Z,2.900000
2023-02-02T03:30:21.246Z,2.791667
2023-02-02T03:35:21.113Z,2.627273
2023-02-02T03:40:22.635Z,2.450000
2023-02-02T03:45:23.096Z,2.290909
2023-02-02T03:50:21.627Z,2.166667
2023-02-02T03:55:21.830Z,2.083333
2023-02-02T04:00:21.541Z,2.000000
2023-02-02T04:05:23.664Z,1.923077
2023-02-02T04:10:21.547Z,1.900000
2023-02-02T04:15:21.617Z,1.900000
2023-02-02T04:20:21.678Z,1.990909
2023-02-02T04:25:24.212Z,2.000000
2023-02-02T04:30:21.603Z,1.970000
2023-02-02T04:35:21.812Z,1.890909
2023-02-02T04:40:21.922Z,1.750000
2023-02-02T04:45:24.735Z,1.636364
2023-02-02T04:50:22.140Z,1.518182
2023-02-02T04:55:22.296Z,1.430769
2023-02-02T05:00:22.127Z,1.336364
2023-02-02T05:05:24.931Z,1.300000
2023-02-02T05:10:21.949Z,1.288889
2023-02-02T05:15:22.308Z,1.183333
2023-02-02T05:20:22.051Z,1.118182
2023-02-02T05:25:26.002Z,1.270000
2023-02-02T05:30:22.039Z,1.475000
2023-02-02T05:35:19.635Z,1.675000
2023-02-02T05:40:22.818Z,1.800000
2023-02-02T05:45:22.971Z,1.800000
2023-02-02T05:50:22.472Z,1.800000
2023-02-02T05:55:20.128Z,1.883333
2023-02-02T06:00:23.261Z,2.028571
2023-02-02T06:05:22.797Z,2.130000
2023-02-02T06:10:22.542Z,2.290909
2023-02-02T06:15:23.167Z,2.500000
2023-02-02T06:20:25.009Z,2.760000
2023-02-02T06:25:22.661Z,2.933333
2023-02-02T06:30:22.471Z,3.066667
2023-02-02T06:35:21.133Z,3.241667
2023-02-02T06:40:25.358Z,3.390000
2023-02-02T06:45:23.140Z,3.560000
2023-02-02T06:50:22.927Z,3.690909
2023-02-02T06:55:21.572Z,3.750000
2023-02-02T07:00:24.723Z,3.811111
2023-02-02T07:05:23.230Z,3.950000
2023-02-02T07:11:13.182Z,4.154545
2023-02-02T07:15:23.341Z,4.300000
2023-02-02T07:20:25.293Z,4.390000
2023-02-02T07:25:28.273Z,4.358333
2023-02-02T07:30:19.536Z,4.400000
2023-02-02T07:35:23.242Z,4.527273
2023-02-02T07:40:25.714Z,4.650000
2023-02-02T07:45:24.541Z,4.700000
2023-02-02T07:50:19.803Z,4.716667
2023-02-02T07:55:23.308Z,4.853846
2023-02-02T08:00:26.109Z,5.009091
2023-02-02T08:05:23.723Z,5.100000
2023-02-02T08:10:20.154Z,5.109091
2023-02-02T08:15:23.534Z,5.230769
2023-02-02T08:20:23.376Z,5.350000
2023-02-02T08:25:23.630Z,5.454545
2023-02-02T08:30:23.371Z,5.550000
2023-02-02T08:35:24.437Z,5.600000
2023-02-02T08:40:23.834Z,5.670000
2023-02-02T08:46:02.463Z,5.691667
2023-02-02T08:50:23.845Z,5.845455
2023-02-02T08:55:24.748Z,6.011111
2023-02-02T09:00:27.682Z,6.237500
2023-02-02T09:05:24.247Z,6.483333
2023-02-02T09:10:21.874Z,6.620000
2023-02-02T09:15:25.484Z,6.633333
2023-02-02T09:20:23.899Z,6.658333
2023-02-02T09:25:19.344Z,6.758333
2023-02-02T09:30:23.913Z,6.981818
2023-02-02T09:35:26.041Z,7.000000
2023-02-02T09:40:24.228Z,7.000000
2023-02-02T09:45:20.805Z,7.058333
2023-02-02T09:50:24.298Z,7.200000
2023-02-02T09:55:26.356Z,7.200000
2023-02-02T10:00:25.541Z,7.133333
2023-02-02T10:05:20.145Z,7.090000
2023-02-02T10:10:24.216Z,7.000000
2023-02-02T10:15:27.010Z,7.000000
2023-02-02T10:20:24.620Z,7.000000
2023-02-02T10:25:20.999Z,7.000000
2023-02-02T10:30:24.595Z,7.000000
2023-02-02T10:35:24.194Z,7.109091
2023-02-02T10:40:30.415Z,7.227273
2023-02-02T10:45:21.429Z,7.400000
2023-02-02T10:50:25.114Z,7.500000
2023-02-02T10:55:27.658Z,7.523077
2023-02-02T11:00:25.233Z,7.436364
2023-02-02T11:05:24.938Z,7.246154
2023-02-02T11:10:25.304Z,7.100000
2023-02-02T11:15:24.704Z,7.145455
2023-02-02T11:20:19.035Z,7.122222
2023-02-02T11:25:24.762Z,7.100000
2023-02-02T11:30:26.099Z,7.187500
2023-02-02T11:35:24.764Z,7.420000
2023-02-02T11:40:20.320Z,7.672727
2023-02-02T11:45:25.129Z,7.954545
2023-02-02T11:50:26.546Z,8.214286
2023-02-02T11:55:25.067Z,8.300000
2023-02-02T12:00:20.346Z,8.350000
2023-02-02T12:05:23.476Z,8.266667
2023-02-02T12:10:27.193Z,8.270000
2023-02-02T12:15:25.410Z,8.133333
2023-02-02T12:20:20.847Z,8.030000
2023-02-02T12:25:25.522Z,7.909091
2023-02-02T12:30:28.903Z,7.962500
2023-02-02T12:35:25.110Z,8.000000
2023-02-02T12:40:21.695Z,8.000000
2023-02-02T12:45:26.807Z,8.000000
2023-02-02T12:50:28.225Z,8.000000
2023-02-02T12:55:18.960Z,8.055556
2023-02-02T13:00:22.117Z,8.000000
2023-02-02T13:05:25.489Z,7.900000
2023-02-02T13:10:28.574Z,7.872727
2023-02-02T13:15:19.369Z,7.763636
2023-02-02T13:20:22.631Z,7.630000
2023-02-02T13:25:26.402Z,7.600000
2023-02-02T13:30:25.662Z,7.562500
2023-02-02T13:35:20.287Z,7.500000
2023-02-02T13:40:25.939Z,7.500000
2023-02-02T13:45:26.961Z,7.500000
2023-02-02T13:50:25.851Z,7.490909
2023-02-02T13:55:20.744Z,7.400000
2023-02-02T14:00:26.018Z,7.400000
2023-02-02T14:05:27.239Z,7.336364
2023-02-02T14:10:30.142Z,7.300000
2023-02-02T14:15:21.086Z,7.300000
2023-02-02T14:20:26.013Z,7.200000
2023-02-02T14:25:27.946Z,7.166667
2023-02-02T14:30:18.777Z,7.070000
2023-02-02T14:35:21.907Z,7.000000
2023-02-02T14:40:26.396Z,6.910000
2023-02-02T14:45:28.636Z,6.836364
2023-02-02T14:50:19.359Z,6.800000
2023-02-02T14:55:22.465Z,6.833333
2023-02-02T15:00:26.399Z,6.954545
2023-02-02T15:05:28.875Z,6.936364
2023-02-02T15:10:19.556Z,6.400000
2023-02-02T15:15:22.987Z,5.600000
2023-02-02T15:20:26.532Z,4.854545
2023-02-02T15:25:29.207Z,4.290000
2023-02-02T15:30:20.194Z,3.933333
2023-02-02T15:35:23.546Z,3.750000
2023-02-02T15:40:26.779Z,3.700000
2023-02-02T15:45:31.462Z,3.750000
2023-02-02T15:50:20.552Z,3.800000
2023-02-02T15:55:24.295Z,3.900000
2023-02-02T16:00:39.240Z,3.888889
2023-02-02T16:05:27.269Z,3.830769
2023-02-02T16:10:20.996Z,3.900000
2023-02-02T16:15:27.442Z,3.950000
2023-02-02T16:20:27.362Z,4.000000
2023-02-02T16:25:27.267Z,4.000000
2023-02-02T16:30:21.709Z,4.000000
2023-02-02T16:35:27.034Z,4.000000
2023-02-02T16:40:28.072Z,3.933333
2023-02-02T16:45:19.247Z,4.000000
2023-02-02T16:50:22.187Z,3.966667
2023-02-02T16:55:36.493Z,3.900000
2023-02-02T17:00:28.515Z,3.855556
2023-02-02T17:05:19.557Z,3.800000
2023-02-02T17:10:22.723Z,3.800000
2023-02-02T17:15:27.692Z,3.800000
2023-02-02T17:20:28.833Z,3.800000
2023-02-02T17:25:20.252Z,3.800000
2023-02-02T17:30:23.404Z,3.800000
2023-02-02T17:35:28.666Z,3.736364
2023-02-02T17:40:29.676Z,3.700000
2023-02-02T17:45:20.585Z,3.645455
2023-02-02T17:50:24.194Z,3.600000
2023-02-02T17:55:28.062Z,3.600000
2023-02-02T18:00:31.605Z,3.562500
2023-02-02T18:05:21.038Z,3.500000
2023-02-02T18:10:24.831Z,3.500000
2023-02-02T18:15:28.252Z,3.500000
2023-02-02T18:20:30.636Z,3.500000
2023-02-02T18:25:21.721Z,3.500000
2023-02-02T18:30:28.054Z,3.445455
2023-02-02T18:35:29.192Z,3.370000
2023-02-02T18:40:18.945Z,3.300000
2023-02-02T18:45:22.088Z,3.225000
2023-02-02T18:50:26.604Z,3.200000
2023-02-02T18:55:28.739Z,3.200000
2023-02-02T19:00:19.406Z,3.200000
2023-02-02T19:05:22.809Z,3.200000
2023-02-02T19:10:28.367Z,3.200000
2023-02-02T19:15:29.192Z,3.200000
2023-02-02T19:20:19.723Z,3.170000
2023-02-02T19:25:23.103Z,3.100000
2023-02-02T19:30:26.571Z,3.100000
2023-02-02T19:35:29.485Z,3.023077
2023-02-02T19:40:20.428Z,3.016667
2023-02-02T19:45:23.620Z,3.100000
2023-02-02T19:50:29.066Z,3.088889
2023-02-02T19:55:29.885Z,3.000000
2023-02-02T20:00:20.802Z,2.933333
2023-02-02T20:05:23.922Z,2.900000
2023-02-02T20:10:29.121Z,2.900000
2023-02-02T20:15:30.238Z,2.827273
2023-02-02T20:20:21.186Z,2.766667
2023-02-02T20:25:24.684Z,2.700000
2023-02-02T20:30:29.108Z,2.700000
2023-02-02T20:35:30.797Z,2.612500
2023-02-02T20:40:21.675Z,2.600000
2023-02-02T20:45:25.185Z,2.600000
2023-02-02T20:50:29.007Z,2.600000
2023-02-02T20:55:19.205Z,2.600000
2023-02-02T21:00:22.235Z,2.600000
2023-02-02T21:05:25.497Z,2.600000
2023-02-02T21:10:29.199Z,2.580000
2023-02-02T21:15:19.508Z,2.500000
2023-02-02T21:20:22.705Z,2.475000
2023-02-02T21:25:26.323Z,2.375000
2023-02-02T21:30:29.661Z,2.288889
2023-02-02T21:35:20.195Z,2.200000
2023-02-02T21:40:23.432Z,2.109091
2023-02-02T21:45:26.381Z,2.100000
2023-02-02T21:50:30.698Z,2.100000
2023-02-02T21:55:20.472Z,2.100000
2023-02-02T22:00:24.388Z,2.100000
2023-02-02T22:05:29.454Z,2.100000
2023-02-02T22:10:29.956Z,2.100000
2023-02-02T22:15:20.992Z,2.050000
2023-02-02T22:20:24.735Z,2.000000
2023-02-02T22:25:29.569Z,2.000000
2023-02-02T22:30:30.734Z,2.000000
2023-02-02T22:35:21.561Z,2.009091
2023-02-02T22:40:25.203Z,2.100000
2023-02-02T22:45:30.004Z,2.100000
2023-02-02T22:50:18.853Z,2.180000
2023-02-02T22:55:22.064Z,2.100000
2023-02-02T23:00:25.823Z,2.100000
2023-02-02T23:05:29.959Z,2.042857
2023-02-02T23:10:19.275Z,2.000000
2023-02-02T23:15:22.486Z,2.000000
2023-02-02T23:20:25.810Z,1.953846
2023-02-02T23:25:28.835Z,1.900000
2023-02-02T23:30:19.955Z,1.827273
2023-02-02T23:35:23.025Z,1.800000
2023-02-02T23:40:26.353Z,1.775000
2023-02-02T23:45:30.459Z,1.700000
2023-02-02T23:50:20.208Z,1.627273
2023-02-02T23:55:23.421Z,1.700000
